Cheyenne — 9HAK5 — position and weather

sailwx.info

Track history (hours):
 
Tides and Currents Weather Stations Pressure Air Temp Water Temp Dewpoint Dewpoint Depression Visibility Wind Speed Wind Dir Waves Ship Positions

Cheyenne

Last reported at 2016-May-24 07:33 UTC. Time now 2016-May-24 15:43 UTC.
Position N 37°26' E 025°03'.

Length 133 m; draft 3.8 m.

Type: Ship. MMSI: 249607000.

Date/timePositionNaut miles runAvg speedWind from/ knotsBaromVisibWave heightAir tempDewpointWater temp
2016-May-24 07:33N 37°26' E 025°03'7 7.4
2016-May-24 06:33N 37°29' E 025°11'17 8.2
2016-May-24 04:27N 37°41' E 025°28'8 8.0
2016-May-24 03:29N 37°46' E 025°35'247 5.7
2016-May-22 08:20N 40°57' E 028°56'1 1.2
2016-May-22 07:16N 40°58' E 028°56'0 0.0
2016-May-22 06:16N 40°58' E 028°56'0 0.0
2016-May-22 05:28N 40°58' E 028°56'0 0.0
2016-May-22 04:10N 40°58' E 028°56'0 0.0
2016-May-22 03:28N 40°58' E 028°56'0 0.1
2016-May-22 02:23N 40°58' E 028°56'2 2.6
2016-May-22 01:31N 40°59' E 028°59'150 6.8
2016-May-21 03:25N 42°32' E 031°37'7 7.5
2016-May-21 02:29N 42°36' E 031°45'6 6.2
2016-May-21 01:34N 42°39' E 031°52'5 5.2
2016-May-21 00:33N 42°42' E 031°58'244 6.4
2016-May-19 10:33N 45°08' E 036°29'8 7.7
2016-May-19 09:33N 45°16' E 036°28'7 7.5
2016-May-19 08:33N 45°20' E 036°37'8 7.6
2016-May-19 07:33N 45°27' E 036°42'126 5.4
2016-May-18 08:29N 47°02' E 038°41'  
Track history (hours):
 
Tides and Currents Weather Stations Pressure Air Temp Water Temp Dewpoint Dewpoint Depression Visibility Wind Speed Wind Dir Waves Ship Positions

Cheyenne

Last reported at 2016-May-24 07:33 UTC. Time now 2016-May-24 15:43 UTC.
Position N 37°26' E 025°03'.

Length 133 m; draft 3.8 m.

Type: Ship. MMSI: 249607000.

Date/timePositionNaut miles runAvg speedWind from/ knotsBaromVisibWave heightAir tempDewpointWater temp
2016-May-24 07:33N 37°26' E 025°03'7 7.4
2016-May-24 06:33N 37°29' E 025°11'17 8.2
2016-May-24 04:27N 37°41' E 025°28'8 8.0
2016-May-24 03:29N 37°46' E 025°35'247 5.7
2016-May-22 08:20N 40°57' E 028°56'1 1.2
2016-May-22 07:16N 40°58' E 028°56'0 0.0
2016-May-22 06:16N 40°58' E 028°56'0 0.0
2016-May-22 05:28N 40°58' E 028°56'0 0.0
2016-May-22 04:10N 40°58' E 028°56'0 0.0
2016-May-22 03:28N 40°58' E 028°56'0 0.1
2016-May-22 02:23N 40°58' E 028°56'2 2.6
2016-May-22 01:31N 40°59' E 028°59'150 6.8
2016-May-21 03:25N 42°32' E 031°37'7 7.5
2016-May-21 02:29N 42°36' E 031°45'6 6.2
2016-May-21 01:34N 42°39' E 031°52'5 5.2
2016-May-21 00:33N 42°42' E 031°58'244 6.4
2016-May-19 10:33N 45°08' E 036°29'8 7.7
2016-May-19 09:33N 45°16' E 036°28'7 7.5
2016-May-19 08:33N 45°20' E 036°37'8 7.6
2016-May-19 07:33N 45°27' E 036°42'126 5.4
2016-May-18 08:29N 47°02' E 038°41'  

Dump ship's entire track history